sensor_id;sensor_type;location;lat;lon;timestamp;P1;durP1;ratioP1;P2;durP2;ratioP2
68951;SDS011;56000;51.146;17.112;2024-03-23T00:54:38;22.00;;;13.40;;
68951;SDS011;56000;51.146;17.112;2024-03-23T00:57:10;25.50;;;12.60;;
68951;SDS011;56000;51.146;17.112;2024-03-23T00:59:42;23.50;;;12.80;;
68951;SDS011;56000;51.146;17.112;2024-03-23T01:02:14;22.60;;;11.60;;
68951;SDS011;56000;51.146;17.112;2024-03-23T01:04:46;24.80;;;12.50;;
68951;SDS011;56000;51.146;17.112;2024-03-23T01:07:19;22.20;;;13.50;;
68951;SDS011;56000;51.146;17.112;2024-03-23T01:09:51;23.80;;;13.20;;
68951;SDS011;56000;51.146;17.112;2024-03-23T01:12:23;24.00;;;12.60;;
68951;SDS011;56000;51.146;17.112;2024-03-23T01:14:55;29.30;;;14.00;;
68951;SDS011;56000;51.146;17.112;2024-03-23T01:17:27;24.20;;;13.90;;
68951;SDS011;56000;51.146;17.112;2024-03-23T01:20:00;26.00;;;13.30;;
68951;SDS011;56000;51.146;17.112;2024-03-23T01:22:33;25.70;;;13.30;;
68951;SDS011;56000;51.146;17.112;2024-03-23T01:25:05;23.40;;;13.10;;
68951;SDS011;56000;51.146;17.112;2024-03-23T01:27:38;24.50;;;13.30;;
68951;SDS011;56000;51.146;17.112;2024-03-23T01:30:11;20.50;;;11.40;;
68951;SDS011;56000;51.146;17.112;2024-03-23T01:32:43;23.50;;;11.60;;
68951;SDS011;56000;51.146;17.112;2024-03-23T01:35:16;23.30;;;12.70;;
68951;SDS011;56000;51.146;17.112;2024-03-23T01:37:48;28.30;;;14.50;;
68951;SDS011;56000;51.146;17.112;2024-03-23T01:40:20;21.90;;;11.60;;
68951;SDS011;56000;51.146;17.112;2024-03-23T01:43:03;22.80;;;12.70;;
68951;SDS011;56000;51.146;17.112;2024-03-23T01:45:38;25.10;;;13.60;;
68951;SDS011;56000;51.146;17.112;2024-03-23T01:48:10;22.00;;;12.40;;
68951;SDS011;56000;51.146;17.112;2024-03-23T01:50:42;25.20;;;11.80;;
68951;SDS011;56000;51.146;17.112;2024-03-23T01:53:15;22.40;;;11.90;;
68951;SDS011;56000;51.146;17.112;2024-03-23T01:55:49;20.90;;;11.00;;
68951;SDS011;56000;51.146;17.112;2024-03-23T01:58:21;27.20;;;13.00;;
68951;SDS011;56000;51.146;17.112;2024-03-23T02:00:54;20.30;;;11.00;;
68951;SDS011;56000;51.146;17.112;2024-03-23T02:03:27;21.80;;;11.50;;
68951;SDS011;56000;51.146;17.112;2024-03-23T02:06:00;23.80;;;11.10;;
68951;SDS011;56000;51.146;17.112;2024-03-23T02:08:33;22.20;;;10.80;;
68951;SDS011;56000;51.146;17.112;2024-03-23T02:11:05;18.00;;;10.90;;
68951;SDS011;56000;51.146;17.112;2024-03-23T02:13:37;20.60;;;10.70;;
68951;SDS011;56000;51.146;17.112;2024-03-23T02:16:09;24.80;;;10.50;;
68951;SDS011;56000;51.146;17.112;2024-03-23T02:18:42;19.90;;;10.80;;
68951;SDS011;56000;51.146;17.112;2024-03-23T02:21:16;20.50;;;10.00;;
68951;SDS011;56000;51.146;17.112;2024-03-23T02:23:48;20.60;;;11.50;;
68951;SDS011;56000;51.146;17.112;2024-03-23T02:26:20;21.10;;;11.20;;
68951;SDS011;56000;51.146;17.112;2024-03-23T02:28:53;17.80;;;10.90;;
68951;SDS011;56000;51.146;17.112;2024-03-23T02:31:25;22.40;;;10.80;;
68951;SDS011;56000;51.146;17.112;2024-03-23T02:33:57;20.50;;;10.80;;
68951;SDS011;56000;51.146;17.112;2024-03-23T02:36:29;20.80;;;10.70;;
68951;SDS011;56000;51.146;17.112;2024-03-23T02:39:01;16.20;;;10.20;;
68951;SDS011;56000;51.146;17.112;2024-03-23T02:41:34;18.20;;;10.80;;
68951;SDS011;56000;51.146;17.112;2024-03-23T02:44:07;15.70;;;10.10;;
68951;SDS011;56000;51.146;17.112;2024-03-23T02:46:41;23.80;;;11.50;;
68951;SDS011;56000;51.146;17.112;2024-03-23T02:49:16;19.90;;;10.90;;
68951;SDS011;56000;51.146;17.112;2024-03-23T02:51:50;23.00;;;12.00;;
68951;SDS011;56000;51.146;17.112;2024-03-23T02:54:22;19.50;;;10.70;;
68951;SDS011;56000;51.146;17.112;2024-03-23T02:56:55;18.50;;;10.20;;
68951;SDS011;56000;51.146;17.112;2024-03-23T02:59:27;19.90;;;10.90;;
68951;SDS011;56000;51.146;17.112;2024-03-23T03:01:59;20.90;;;11.70;;
68951;SDS011;56000;51.146;17.112;2024-03-23T03:04:34;22.80;;;11.60;;
68951;SDS011;56000;51.146;17.112;2024-03-23T03:07:06;20.60;;;11.50;;
68951;SDS011;56000;51.146;17.112;2024-03-23T03:09:38;23.10;;;11.80;;
68951;SDS011;56000;51.146;17.112;2024-03-23T03:12:11;18.80;;;11.30;;
68951;SDS011;56000;51.146;17.112;2024-03-23T03:14:43;21.50;;;11.90;;
68951;SDS011;56000;51.146;17.112;2024-03-23T03:17:15;21.80;;;11.40;;
68951;SDS011;56000;51.146;17.112;2024-03-23T03:19:48;21.20;;;11.70;;
68951;SDS011;56000;51.146;17.112;2024-03-23T03:22:25;21.40;;;11.90;;
68951;SDS011;56000;51.146;17.112;2024-03-23T03:24:57;19.20;;;11.00;;
68951;SDS011;56000;51.146;17.112;2024-03-23T03:27:30;25.10;;;12.50;;
68951;SDS011;56000;51.146;17.112;2024-03-23T03:30:02;21.70;;;11.70;;
68951;SDS011;56000;51.146;17.112;2024-03-23T03:32:36;18.90;;;11.70;;
68951;SDS011;56000;51.146;17.112;2024-03-23T03:35:09;20.20;;;11.50;;
68951;SDS011;56000;51.146;17.112;2024-03-23T03:37:41;20.50;;;12.00;;
68951;SDS011;56000;51.146;17.112;2024-03-23T03:40:14;20.60;;;11.20;;
68951;SDS011;56000;51.146;17.112;2024-03-23T03:42:46;19.70;;;11.10;;
68951;SDS011;56000;51.146;17.112;2024-03-23T03:45:19;22.30;;;11.60;;
68951;SDS011;56000;51.146;17.112;2024-03-23T03:47:51;19.00;;;10.90;;
68951;SDS011;56000;51.146;17.112;2024-03-23T03:50:23;22.50;;;11.90;;
68951;SDS011;56000;51.146;17.112;2024-03-23T03:52:56;19.10;;;11.40;;
68951;SDS011;56000;51.146;17.112;2024-03-23T03:55:28;21.10;;;11.30;;
68951;SDS011;56000;51.146;17.112;2024-03-23T03:58:00;22.70;;;12.10;;
68951;SDS011;56000;51.146;17.112;2024-03-23T04:00:32;23.80;;;12.10;;
68951;SDS011;56000;51.146;17.112;2024-03-23T04:03:05;22.40;;;11.30;;
68951;SDS011;56000;51.146;17.112;2024-03-23T04:05:37;19.90;;;11.00;;
68951;SDS011;56000;51.146;17.112;2024-03-23T04:08:09;19.30;;;10.90;;
68951;SDS011;56000;51.146;17.112;2024-03-23T04:10:42;20.10;;;11.10;;
68951;SDS011;56000;51.146;17.112;2024-03-23T04:13:14;19.10;;;11.20;;
68951;SDS011;56000;51.146;17.112;2024-03-23T04:15:46;21.40;;;11.60;;
68951;SDS011;56000;51.146;17.112;2024-03-23T04:18:18;17.80;;;10.90;;
68951;SDS011;56000;51.146;17.112;2024-03-23T04:20:51;23.30;;;10.40;;
68951;SDS011;56000;51.146;17.112;2024-03-23T04:23:23;17.40;;;10.10;;
68951;SDS011;56000;51.146;17.112;2024-03-23T04:25:55;18.90;;;11.10;;
68951;SDS011;56000;51.146;17.112;2024-03-23T04:28:32;18.00;;;10.50;;
68951;SDS011;56000;51.146;17.112;2024-03-23T04:31:06;19.10;;;11.30;;
68951;SDS011;56000;51.146;17.112;2024-03-23T04:33:38;20.00;;;11.20;;
68951;SDS011;56000;51.146;17.112;2024-03-23T04:36:10;20.30;;;11.40;;
68951;SDS011;56000;51.146;17.112;2024-03-23T04:38:42;19.30;;;12.10;;
68951;SDS011;56000;51.146;17.112;2024-03-23T04:41:19;19.20;;;10.40;;
68951;SDS011;56000;51.146;17.112;2024-03-23T04:43:51;21.40;;;10.90;;
68951;SDS011;56000;51.146;17.112;2024-03-23T04:46:24;20.70;;;12.40;;
68951;SDS011;56000;51.146;17.112;2024-03-23T04:48:57;22.90;;;11.70;;
68951;SDS011;56000;51.146;17.112;2024-03-23T04:51:34;23.30;;;12.10;;
68951;SDS011;56000;51.146;17.112;2024-03-23T04:54:07;21.40;;;11.00;;
68951;SDS011;56000;51.146;17.112;2024-03-23T04:56:40;21.10;;;11.20;;
68951;SDS011;56000;51.146;17.112;2024-03-23T04:59:12;19.80;;;12.60;;
68951;SDS011;56000;51.146;17.112;2024-03-23T05:01:44;21.30;;;12.30;;
68951;SDS011;56000;51.146;17.112;2024-03-23T05:04:18;20.80;;;13.50;;
68951;SDS011;56000;51.146;17.112;2024-03-23T05:06:50;20.20;;;11.00;;
68951;SDS011;56000;51.146;17.112;2024-03-23T05:09:23;19.50;;;10.90;;
68951;SDS011;56000;51.146;17.112;2024-03-23T05:11:59;18.00;;;11.20;;
68951;SDS011;56000;51.146;17.112;2024-03-23T05:14:32;22.20;;;11.70;;
68951;SDS011;56000;51.146;17.112;2024-03-23T05:17:04;22.70;;;11.80;;
68951;SDS011;56000;51.146;17.112;2024-03-23T05:19:36;18.60;;;11.00;;
68951;SDS011;56000;51.146;17.112;2024-03-23T05:22:08;19.00;;;10.80;;
68951;SDS011;56000;51.146;17.112;2024-03-23T05:24:41;22.40;;;11.00;;
68951;SDS011;56000;51.146;17.112;2024-03-23T05:27:15;18.20;;;11.20;;
68951;SDS011;56000;51.146;17.112;2024-03-23T05:29:47;18.70;;;11.10;;
68951;SDS011;56000;51.146;17.112;2024-03-23T05:32:19;24.30;;;12.70;;
68951;SDS011;56000;51.146;17.112;2024-03-23T05:34:51;21.90;;;12.00;;
68951;SDS011;56000;51.146;17.112;2024-03-23T05:37:26;18.90;;;10.50;;
68951;SDS011;56000;51.146;17.112;2024-03-23T05:40:00;19.20;;;11.20;;
68951;SDS011;56000;51.146;17.112;2024-03-23T05:42:33;20.50;;;12.00;;
68951;SDS011;56000;51.146;17.112;2024-03-23T05:45:06;38.40;;;22.20;;
68951;SDS011;56000;51.146;17.112;2024-03-23T05:47:40;51.70;;;29.50;;
68951;SDS011;56000;51.146;17.112;2024-03-23T05:50:12;28.00;;;16.40;;
68951;SDS011;56000;51.146;17.112;2024-03-23T05:52:45;21.20;;;13.70;;
68951;SDS011;56000;51.146;17.112;2024-03-23T05:55:17;22.90;;;12.30;;
68951;SDS011;56000;51.146;17.112;2024-03-23T05:57:49;19.10;;;10.80;;
68951;SDS011;56000;51.146;17.112;2024-03-23T06:00:22;18.50;;;10.90;;
68951;SDS011;56000;51.146;17.112;2024-03-23T06:02:55;17.10;;;10.50;;
68951;SDS011;56000;51.146;17.112;2024-03-23T06:05:28;19.30;;;10.40;;
68951;SDS011;56000;51.146;17.112;2024-03-23T06:08:00;15.40;;;9.40;;
68951;SDS011;56000;51.146;17.112;2024-03-23T06:10:32;16.50;;;10.20;;
68951;SDS011;56000;51.146;17.112;2024-03-23T06:13:05;16.40;;;10.50;;
68951;SDS011;56000;51.146;17.112;2024-03-23T06:15:37;19.10;;;9.90;;
68951;SDS011;56000;51.146;17.112;2024-03-23T06:18:09;16.60;;;10.80;;
68951;SDS011;56000;51.146;17.112;2024-03-23T06:20:41;16.80;;;10.40;;
68951;SDS011;56000;51.146;17.112;2024-03-23T06:23:14;16.50;;;10.70;;
68951;SDS011;56000;51.146;17.112;2024-03-23T06:25:46;18.60;;;11.00;;
68951;SDS011;56000;51.146;17.112;2024-03-23T06:28:19;19.50;;;11.80;;
68951;SDS011;56000;51.146;17.112;2024-03-23T06:30:51;19.50;;;11.30;;
68951;SDS011;56000;51.146;17.112;2024-03-23T06:33:23;19.40;;;10.50;;
68951;SDS011;56000;51.146;17.112;2024-03-23T06:35:55;16.30;;;10.70;;
68951;SDS011;56000;51.146;17.112;2024-03-23T06:38:28;22.90;;;12.20;;
68951;SDS011;56000;51.146;17.112;2024-03-23T06:41:00;19.10;;;12.00;;
68951;SDS011;56000;51.146;17.112;2024-03-23T06:43:34;22.70;;;13.20;;
68951;SDS011;56000;51.146;17.112;2024-03-23T06:46:06;23.70;;;13.00;;
68951;SDS011;56000;51.146;17.112;2024-03-23T06:48:38;26.40;;;16.70;;
68951;SDS011;56000;51.146;17.112;2024-03-23T06:51:11;32.60;;;19.20;;
68951;SDS011;56000;51.146;17.112;2024-03-23T06:53:43;28.20;;;15.20;;
68951;SDS011;56000;51.146;17.112;2024-03-23T06:56:15;23.90;;;14.10;;
68951;SDS011;56000;51.146;17.112;2024-03-23T06:58:47;22.90;;;12.90;;
68951;SDS011;56000;51.146;17.112;2024-03-23T07:01:19;18.10;;;11.90;;
68951;SDS011;56000;51.146;17.112;2024-03-23T07:03:51;20.20;;;12.50;;
68951;SDS011;56000;51.146;17.112;2024-03-23T07:06:23;19.10;;;12.10;;
68951;SDS011;56000;51.146;17.112;2024-03-23T07:08:56;22.20;;;12.10;;
68951;SDS011;56000;51.146;17.112;2024-03-23T07:11:28;18.70;;;12.00;;
68951;SDS011;56000;51.146;17.112;2024-03-23T07:14:00;21.80;;;10.40;;
68951;SDS011;56000;51.146;17.112;2024-03-23T07:16:33;17.70;;;10.90;;
68951;SDS011;56000;51.146;17.112;2024-03-23T07:19:05;17.10;;;10.60;;
68951;SDS011;56000;51.146;17.112;2024-03-23T07:21:38;17.40;;;10.30;;
68951;SDS011;56000;51.146;17.112;2024-03-23T07:24:10;16.70;;;10.70;;
68951;SDS011;56000;51.146;17.112;2024-03-23T07:26:43;17.70;;;10.60;;
68951;SDS011;56000;51.146;17.112;2024-03-23T07:29:15;15.60;;;9.90;;
68951;SDS011;56000;51.146;17.112;2024-03-23T07:31:47;16.10;;;9.90;;
68951;SDS011;56000;51.146;17.112;2024-03-23T07:34:19;18.40;;;10.40;;
68951;SDS011;56000;51.146;17.112;2024-03-23T07:36:51;21.00;;;11.50;;
68951;SDS011;56000;51.146;17.112;2024-03-23T07:39:23;14.30;;;10.00;;
68951;SDS011;56000;51.146;17.112;2024-03-23T07:41:57;19.10;;;10.80;;
68951;SDS011;56000;51.146;17.112;2024-03-23T07:44:29;17.30;;;9.90;;
68951;SDS011;56000;51.146;17.112;2024-03-23T07:47:01;15.90;;;9.80;;
68951;SDS011;56000;51.146;17.112;2024-03-23T07:49:33;15.60;;;10.00;;
68951;SDS011;56000;51.146;17.112;2024-03-23T07:52:06;23.50;;;16.40;;
68951;SDS011;56000;51.146;17.112;2024-03-23T07:54:38;16.90;;;10.70;;
68951;SDS011;56000;51.146;17.112;2024-03-23T07:57:11;16.20;;;9.80;;
68951;SDS011;56000;51.146;17.112;2024-03-23T07:59:43;15.40;;;10.00;;
68951;SDS011;56000;51.146;17.112;2024-03-23T08:02:15;20.00;;;10.00;;
68951;SDS011;56000;51.146;17.112;2024-03-23T08:04:47;15.00;;;8.90;;
68951;SDS011;56000;51.146;17.112;2024-03-23T08:07:19;14.30;;;9.70;;
68951;SDS011;56000;51.146;17.112;2024-03-23T08:09:52;18.20;;;10.50;;
68951;SDS011;56000;51.146;17.112;2024-03-23T08:12:24;13.60;;;9.30;;
68951;SDS011;56000;51.146;17.112;2024-03-23T08:14:56;15.90;;;8.70;;
68951;SDS011;56000;51.146;17.112;2024-03-23T08:17:28;16.40;;;9.90;;
68951;SDS011;56000;51.146;17.112;2024-03-23T08:20:00;14.90;;;9.00;;
68951;SDS011;56000;51.146;17.112;2024-03-23T08:22:33;14.20;;;9.20;;
68951;SDS011;56000;51.146;17.112;2024-03-23T08:25:06;18.90;;;9.70;;
68951;SDS011;56000;51.146;17.112;2024-03-23T08:27:38;14.40;;;8.60;;
68951;SDS011;56000;51.146;17.112;2024-03-23T08:30:12;12.70;;;8.20;;
68951;SDS011;56000;51.146;17.112;2024-03-23T08:32:44;13.50;;;9.20;;
68951;SDS011;56000;51.146;17.112;2024-03-23T08:35:16;11.80;;;8.60;;
68951;SDS011;56000;51.146;17.112;2024-03-23T08:37:49;15.30;;;7.70;;
68951;SDS011;56000;51.146;17.112;2024-03-23T08:40:21;12.80;;;7.30;;
68951;SDS011;56000;51.146;17.112;2024-03-23T08:42:53;12.00;;;7.30;;
68951;SDS011;56000;51.146;17.112;2024-03-23T08:45:26;13.20;;;7.80;;
68951;SDS011;56000;51.146;17.112;2024-03-23T08:47:58;10.80;;;7.30;;
68951;SDS011;56000;51.146;17.112;2024-03-23T08:50:30;12.70;;;7.10;;
68951;SDS011;56000;51.146;17.112;2024-03-23T08:53:02;10.10;;;7.00;;
68951;SDS011;56000;51.146;17.112;2024-03-23T08:55:34;11.00;;;7.30;;
68951;SDS011;56000;51.146;17.112;2024-03-23T08:58:06;9.70;;;7.40;;
68951;SDS011;56000;51.146;17.112;2024-03-23T09:00:39;11.70;;;6.90;;
68951;SDS011;56000;51.146;17.112;2024-03-23T09:03:12;14.30;;;7.70;;
68951;SDS011;56000;51.146;17.112;2024-03-23T09:05:45;13.80;;;7.50;;
68951;SDS011;56000;51.146;17.112;2024-03-23T09:08:17;10.40;;;6.60;;
68951;SDS011;56000;51.146;17.112;2024-03-23T09:10:49;14.10;;;7.60;;
68951;SDS011;56000;51.146;17.112;2024-03-23T09:13:22;12.20;;;7.50;;
68951;SDS011;56000;51.146;17.112;2024-03-23T09:15:54;12.70;;;7.50;;
68951;SDS011;56000;51.146;17.112;2024-03-23T09:18:26;10.40;;;7.70;;
68951;SDS011;56000;51.146;17.112;2024-03-23T09:21:02;10.60;;;7.40;;
68951;SDS011;56000;51.146;17.112;2024-03-23T09:23:34;11.20;;;7.50;;
68951;SDS011;56000;51.146;17.112;2024-03-23T09:26:07;12.50;;;7.80;;
68951;SDS011;56000;51.146;17.112;2024-03-23T09:28:39;13.40;;;7.80;;
68951;SDS011;56000;51.146;17.112;2024-03-23T09:31:12;11.30;;;7.10;;
68951;SDS011;56000;51.146;17.112;2024-03-23T09:33:44;13.00;;;7.80;;
68951;SDS011;56000;51.146;17.112;2024-03-23T09:36:16;10.60;;;6.90;;
68951;SDS011;56000;51.146;17.112;2024-03-23T09:38:48;12.40;;;6.50;;
68951;SDS011;56000;51.146;17.112;2024-03-23T09:41:21;9.60;;;6.20;;
68951;SDS011;56000;51.146;17.112;2024-03-23T09:43:54;13.30;;;6.30;;
68951;SDS011;56000;51.146;17.112;2024-03-23T09:46:27;13.20;;;7.50;;
68951;SDS011;56000;51.146;17.112;2024-03-23T09:49:03;11.00;;;7.30;;
68951;SDS011;56000;51.146;17.112;2024-03-23T09:51:38;11.70;;;7.70;;
68951;SDS011;56000;51.146;17.112;2024-03-23T09:54:11;19.90;;;11.20;;
68951;SDS011;56000;51.146;17.112;2024-03-23T09:56:43;18.00;;;10.20;;
68951;SDS011;56000;51.146;17.112;2024-03-23T09:59:17;20.50;;;7.50;;
68951;SDS011;56000;51.146;17.112;2024-03-23T10:01:49;17.30;;;6.90;;
68951;SDS011;56000;51.146;17.112;2024-03-23T10:04:38;11.10;;;6.80;;
68951;SDS011;56000;51.146;17.112;2024-03-23T10:07:15;15.10;;;7.30;;
68951;SDS011;56000;51.146;17.112;2024-03-23T10:09:49;12.00;;;6.60;;
68951;SDS011;56000;51.146;17.112;2024-03-23T10:12:22;12.00;;;6.00;;
68951;SDS011;56000;51.146;17.112;2024-03-23T10:14:54;12.40;;;6.90;;
68951;SDS011;56000;51.146;17.112;2024-03-23T10:17:27;9.50;;;6.20;;
68951;SDS011;56000;51.146;17.112;2024-03-23T10:19:59;8.00;;;6.00;;
68951;SDS011;56000;51.146;17.112;2024-03-23T10:22:31;10.30;;;6.80;;
68951;SDS011;56000;51.146;17.112;2024-03-23T10:25:10;8.40;;;6.10;;
68951;SDS011;56000;51.146;17.112;2024-03-23T10:27:43;10.50;;;5.70;;
68951;SDS011;56000;51.146;17.112;2024-03-23T10:30:28;10.10;;;5.90;;
68951;SDS011;56000;51.146;17.112;2024-03-23T10:33:09;9.50;;;6.40;;
68951;SDS011;56000;51.146;17.112;2024-03-23T10:35:42;9.50;;;5.70;;
68951;SDS011;56000;51.146;17.112;2024-03-23T10:38:17;10.80;;;6.20;;
68951;SDS011;56000;51.146;17.112;2024-03-23T10:40:49;10.70;;;6.10;;
68951;SDS011;56000;51.146;17.112;2024-03-23T10:43:22;10.00;;;6.20;;
68951;SDS011;56000;51.146;17.112;2024-03-23T10:45:54;11.00;;;6.60;;
68951;SDS011;56000;51.146;17.112;2024-03-23T10:48:27;14.30;;;6.80;;
68951;SDS011;56000;51.146;17.112;2024-03-23T10:51:00;8.10;;;5.30;;
68951;SDS011;56000;51.146;17.112;2024-03-23T10:53:36;8.50;;;6.10;;
68951;SDS011;56000;51.146;17.112;2024-03-23T10:56:08;7.70;;;5.70;;
68951;SDS011;56000;51.146;17.112;2024-03-23T10:58:44;8.40;;;5.70;;
68951;SDS011;56000;51.146;17.112;2024-03-23T11:01:18;11.00;;;5.80;;
68951;SDS011;56000;51.146;17.112;2024-03-23T11:03:51;9.80;;;6.10;;
68951;SDS011;56000;51.146;17.112;2024-03-23T11:06:40;9.50;;;6.50;;
68951;SDS011;56000;51.146;17.112;2024-03-23T11:12:27;10.70;;;6.40;;
68951;SDS011;56000;51.146;17.112;2024-03-23T11:15:03;11.40;;;7.80;;
68951;SDS011;56000;51.146;17.112;2024-03-23T11:17:41;9.40;;;7.00;;
68951;SDS011;56000;51.146;17.112;2024-03-23T11:20:36;12.60;;;7.00;;
68951;SDS011;56000;51.146;17.112;2024-03-23T11:23:09;9.90;;;6.20;;
68951;SDS011;56000;51.146;17.112;2024-03-23T11:25:58;11.10;;;5.80;;
68951;SDS011;56000;51.146;17.112;2024-03-23T11:28:31;11.30;;;6.70;;
68951;SDS011;56000;51.146;17.112;2024-03-23T11:31:10;9.00;;;6.20;;
68951;SDS011;56000;51.146;17.112;2024-03-23T11:33:42;10.70;;;6.50;;
68951;SDS011;56000;51.146;17.112;2024-03-23T11:36:20;7.30;;;5.40;;
68951;SDS011;56000;51.146;17.112;2024-03-23T11:38:52;10.60;;;6.00;;
68951;SDS011;56000;51.146;17.112;2024-03-23T11:41:24;10.80;;;6.30;;
68951;SDS011;56000;51.146;17.112;2024-03-23T11:43:56;10.30;;;5.60;;
68951;SDS011;56000;51.146;17.112;2024-03-23T11:46:29;9.60;;;4.80;;
68951;SDS011;56000;51.146;17.112;2024-03-23T11:49:01;10.40;;;4.30;;
68951;SDS011;56000;51.146;17.112;2024-03-23T11:51:33;6.60;;;4.10;;
68951;SDS011;56000;51.146;17.112;2024-03-23T11:54:10;8.00;;;4.90;;
68951;SDS011;56000;51.146;17.112;2024-03-23T11:56:42;7.90;;;4.60;;
68951;SDS011;56000;51.146;17.112;2024-03-23T11:59:38;8.90;;;4.30;;
68951;SDS011;56000;51.146;17.112;2024-03-23T12:02:12;8.90;;;4.00;;
68951;SDS011;56000;51.146;17.112;2024-03-23T12:04:48;7.60;;;3.50;;
68951;SDS011;56000;51.146;17.112;2024-03-23T12:07:21;6.40;;;4.20;;
68951;SDS011;56000;51.146;17.112;2024-03-23T12:10:05;7.00;;;4.10;;
68951;SDS011;56000;51.146;17.112;2024-03-23T12:12:39;8.20;;;4.50;;
68951;SDS011;56000;51.146;17.112;2024-03-23T12:15:11;5.70;;;4.00;;
68951;SDS011;56000;51.146;17.112;2024-03-23T12:17:45;6.70;;;3.70;;
68951;SDS011;56000;51.146;17.112;2024-03-23T12:20:17;10.40;;;3.60;;
68951;SDS011;56000;51.146;17.112;2024-03-23T12:22:49;5.90;;;3.90;;
68951;SDS011;56000;51.146;17.112;2024-03-23T12:25:22;5.10;;;3.20;;
68951;SDS011;56000;51.146;17.112;2024-03-23T12:27:54;6.70;;;3.90;;
68951;SDS011;56000;51.146;17.112;2024-03-23T12:30:29;4.70;;;3.40;;
68951;SDS011;56000;51.146;17.112;2024-03-23T12:33:02;6.20;;;3.40;;
68951;SDS011;56000;51.146;17.112;2024-03-23T12:35:34;7.30;;;3.70;;
68951;SDS011;56000;51.146;17.112;2024-03-23T12:38:07;6.00;;;3.00;;
68951;SDS011;56000;51.146;17.112;2024-03-23T12:40:39;5.90;;;3.30;;
68951;SDS011;56000;51.146;17.112;2024-03-23T12:43:11;7.90;;;3.40;;
68951;SDS011;56000;51.146;17.112;2024-03-23T12:45:47;5.40;;;3.40;;
68951;SDS011;56000;51.146;17.112;2024-03-23T12:48:19;3.20;;;2.80;;
68951;SDS011;56000;51.146;17.112;2024-03-23T12:50:55;6.80;;;3.50;;
68951;SDS011;56000;51.146;17.112;2024-03-23T12:53:27;4.70;;;3.60;;
68951;SDS011;56000;51.146;17.112;2024-03-23T12:55:59;6.20;;;3.30;;
68951;SDS011;56000;51.146;17.112;2024-03-23T12:58:32;5.30;;;3.20;;
68951;SDS011;56000;51.146;17.112;2024-03-23T13:01:05;5.50;;;3.50;;
68951;SDS011;56000;51.146;17.112;2024-03-23T13:03:37;6.90;;;3.60;;
68951;SDS011;56000;51.146;17.112;2024-03-23T13:06:10;5.80;;;3.40;;
68951;SDS011;56000;51.146;17.112;2024-03-23T13:08:42;4.90;;;3.80;;
68951;SDS011;56000;51.146;17.112;2024-03-23T13:11:16;6.50;;;4.10;;
68951;SDS011;56000;51.146;17.112;2024-03-23T13:13:49;8.20;;;4.20;;
68951;SDS011;56000;51.146;17.112;2024-03-23T13:16:22;4.00;;;3.00;;
68951;SDS011;56000;51.146;17.112;2024-03-23T13:18:54;10.20;;;2.90;;
68951;SDS011;56000;51.146;17.112;2024-03-23T13:21:26;12.60;;;3.50;;
68951;SDS011;56000;51.146;17.112;2024-03-23T13:23:59;4.90;;;3.10;;
68951;SDS011;56000;51.146;17.112;2024-03-23T13:26:31;5.00;;;3.40;;
68951;SDS011;56000;51.146;17.112;2024-03-23T13:29:04;9.60;;;4.00;;
68951;SDS011;56000;51.146;17.112;2024-03-23T13:31:36;5.80;;;4.00;;
68951;SDS011;56000;51.146;17.112;2024-03-23T13:34:08;9.20;;;4.20;;
68951;SDS011;56000;51.146;17.112;2024-03-23T13:36:42;8.70;;;4.30;;
68951;SDS011;56000;51.146;17.112;2024-03-23T13:39:16;8.20;;;4.20;;
68951;SDS011;56000;51.146;17.112;2024-03-23T13:41:49;9.30;;;4.80;;
68951;SDS011;56000;51.146;17.112;2024-03-23T13:44:21;5.90;;;4.00;;
68951;SDS011;56000;51.146;17.112;2024-03-23T13:46:53;8.10;;;3.20;;
68951;SDS011;56000;51.146;17.112;2024-03-23T13:49:29;9.50;;;3.40;;
68951;SDS011;56000;51.146;17.112;2024-03-23T13:52:03;5.60;;;3.10;;
68951;SDS011;56000;51.146;17.112;2024-03-23T13:54:36;6.00;;;3.30;;
68951;SDS011;56000;51.146;17.112;2024-03-23T13:57:08;5.20;;;3.40;;
68951;SDS011;56000;51.146;17.112;2024-03-23T13:59:41;6.00;;;2.80;;
68951;SDS011;56000;51.146;17.112;2024-03-23T14:02:13;3.70;;;2.40;;
68951;SDS011;56000;51.146;17.112;2024-03-23T14:04:45;8.30;;;2.60;;
68951;SDS011;56000;51.146;17.112;2024-03-23T14:07:18;5.00;;;2.40;;
68951;SDS011;56000;51.146;17.112;2024-03-23T14:09:50;5.10;;;2.70;;
68951;SDS011;56000;51.146;17.112;2024-03-23T14:12:24;3.20;;;2.10;;
68951;SDS011;56000;51.146;17.112;2024-03-23T14:15:01;2.60;;;1.90;;
68951;SDS011;56000;51.146;17.112;2024-03-23T14:17:35;1.70;;;1.60;;
68951;SDS011;56000;51.146;17.112;2024-03-23T14:20:10;2.00;;;1.80;;
68951;SDS011;56000;51.146;17.112;2024-03-23T14:22:43;3.60;;;1.70;;
68951;SDS011;56000;51.146;17.112;2024-03-23T14:25:15;4.60;;;2.70;;
68951;SDS011;56000;51.146;17.112;2024-03-23T14:27:48;3.70;;;2.30;;
68951;SDS011;56000;51.146;17.112;2024-03-23T14:30:20;3.50;;;1.60;;
68951;SDS011;56000;51.146;17.112;2024-03-23T14:32:52;1.60;;;1.40;;
68951;SDS011;56000;51.146;17.112;2024-03-23T14:35:24;2.70;;;1.60;;
68951;SDS011;56000;51.146;17.112;2024-03-23T14:37:56;1.70;;;1.20;;
68951;SDS011;56000;51.146;17.112;2024-03-23T14:40:28;2.50;;;1.30;;
68951;SDS011;56000;51.146;17.112;2024-03-23T14:43:01;1.30;;;1.20;;
68951;SDS011;56000;51.146;17.112;2024-03-23T14:45:33;1.60;;;1.00;;
68951;SDS011;56000;51.146;17.112;2024-03-23T14:48:07;1.70;;;1.40;;
68951;SDS011;56000;51.146;17.112;2024-03-23T14:50:40;0.80;;;0.80;;
68951;SDS011;56000;51.146;17.112;2024-03-23T14:53:12;1.20;;;1.00;;
68951;SDS011;56000;51.146;17.112;2024-03-23T14:55:44;0.80;;;0.80;;
68951;SDS011;56000;51.146;17.112;2024-03-23T14:58:18;0.70;;;0.70;;
68951;SDS011;56000;51.146;17.112;2024-03-23T15:00:52;0.70;;;0.70;;
68951;SDS011;56000;51.146;17.112;2024-03-23T15:03:30;1.70;;;0.70;;
68951;SDS011;56000;51.146;17.112;2024-03-23T15:06:03;2.40;;;1.50;;
68951;SDS011;56000;51.146;17.112;2024-03-23T15:08:38;2.30;;;1.50;;
68951;SDS011;56000;51.146;17.112;2024-03-23T15:11:11;2.70;;;1.10;;
68951;SDS011;56000;51.146;17.112;2024-03-23T15:13:43;1.00;;;1.00;;
68951;SDS011;56000;51.146;17.112;2024-03-23T15:16:18;1.40;;;1.20;;
68951;SDS011;56000;51.146;17.112;2024-03-23T15:18:51;0.90;;;0.90;;
68951;SDS011;56000;51.146;17.112;2024-03-23T15:21:23;2.40;;;1.10;;
68951;SDS011;56000;51.146;17.112;2024-03-23T15:23:55;1.30;;;1.20;;
68951;SDS011;56000;51.146;17.112;2024-03-23T15:26:27;1.10;;;1.10;;
68951;SDS011;56000;51.146;17.112;2024-03-23T15:28:59;0.90;;;0.90;;
68951;SDS011;56000;51.146;17.112;2024-03-23T15:34:11;0.70;;;0.70;;
68951;SDS011;56000;51.146;17.112;2024-03-23T15:36:43;1.20;;;0.90;;
68951;SDS011;56000;51.146;17.112;2024-03-23T15:39:15;0.90;;;0.90;;
68951;SDS011;56000;51.146;17.112;2024-03-23T15:41:48;0.80;;;0.80;;
68951;SDS011;56000;51.146;17.112;2024-03-23T15:44:20;0.80;;;0.80;;
68951;SDS011;56000;51.146;17.112;2024-03-23T15:46:53;1.00;;;1.00;;
68951;SDS011;56000;51.146;17.112;2024-03-23T15:49:26;3.40;;;1.10;;
68951;SDS011;56000;51.146;17.112;2024-03-23T15:51:58;1.00;;;1.00;;